sensor_id;sensor_type;location;lat;lon;timestamp;temperature;humidity
1429;DHT22;708;51.442;7.016;2024-03-08T00:00:04;4.70;99.90
1429;DHT22;708;51.442;7.016;2024-03-08T00:02:35;4.70;99.90
1429;DHT22;708;51.442;7.016;2024-03-08T00:05:02;4.70;99.90
1429;DHT22;708;51.442;7.016;2024-03-08T00:07:30;4.70;99.90
1429;DHT22;708;51.442;7.016;2024-03-08T00:09:57;4.70;99.90
1429;DHT22;708;51.442;7.016;2024-03-08T00:12:24;4.60;99.90
1429;DHT22;708;51.442;7.016;2024-03-08T00:14:52;4.60;99.90
1429;DHT22;708;51.442;7.016;2024-03-08T00:17:20;4.60;99.90
1429;DHT22;708;51.442;7.016;2024-03-08T00:19:48;4.60;99.90
1429;DHT22;708;51.442;7.016;2024-03-08T00:22:15;4.60;99.90
1429;DHT22;708;51.442;7.016;2024-03-08T00:24:43;4.50;99.90
1429;DHT22;708;51.442;7.016;2024-03-08T00:27:10;4.50;99.90
1429;DHT22;708;51.442;7.016;2024-03-08T00:29:37;4.50;99.90
1429;DHT22;708;51.442;7.016;2024-03-08T00:32:05;4.50;99.90
1429;DHT22;708;51.442;7.016;2024-03-08T00:34:35;4.40;99.90
1429;DHT22;708;51.442;7.016;2024-03-08T00:37:02;4.40;99.90
1429;DHT22;708;51.442;7.016;2024-03-08T00:39:29;4.40;99.90
1429;DHT22;708;51.442;7.016;2024-03-08T00:41:57;4.40;99.90
1429;DHT22;708;51.442;7.016;2024-03-08T00:44:24;4.30;99.90
1429;DHT22;708;51.442;7.016;2024-03-08T00:46:50;4.30;99.90
1429;DHT22;708;51.442;7.016;2024-03-08T00:49:17;4.30;99.90
1429;DHT22;708;51.442;7.016;2024-03-08T00:51:44;4.20;99.90
1429;DHT22;708;51.442;7.016;2024-03-08T00:54:10;4.20;99.90
1429;DHT22;708;51.442;7.016;2024-03-08T00:56:37;4.20;99.90
1429;DHT22;708;51.442;7.016;2024-03-08T00:59:06;4.20;99.90
1429;DHT22;708;51.442;7.016;2024-03-08T01:01:33;4.20;99.90
1429;DHT22;708;51.442;7.016;2024-03-08T01:04:00;4.10;99.90
1429;DHT22;708;51.442;7.016;2024-03-08T01:06:27;4.10;99.90
1429;DHT22;708;51.442;7.016;2024-03-08T01:08:54;4.10;99.90
1429;DHT22;708;51.442;7.016;2024-03-08T01:11:21;4.10;99.90
1429;DHT22;708;51.442;7.016;2024-03-08T01:13:47;4.10;99.90
1429;DHT22;708;51.442;7.016;2024-03-08T01:16:16;4.10;99.90
1429;DHT22;708;51.442;7.016;2024-03-08T01:18:43;4.10;99.90
1429;DHT22;708;51.442;7.016;2024-03-08T01:21:10;4.10;99.90
1429;DHT22;708;51.442;7.016;2024-03-08T01:23:37;4.00;99.90
1429;DHT22;708;51.442;7.016;2024-03-08T01:26:04;4.00;99.90
1429;DHT22;708;51.442;7.016;2024-03-08T01:28:32;4.00;99.90
1429;DHT22;708;51.442;7.016;2024-03-08T01:31:00;4.00;99.90
1429;DHT22;708;51.442;7.016;2024-03-08T01:33:28;3.90;99.90
1429;DHT22;708;51.442;7.016;2024-03-08T01:35:55;3.90;1.00
1429;DHT22;708;51.442;7.016;2024-03-08T01:38:22;3.80;1.00
1429;DHT22;708;51.442;7.016;2024-03-08T01:40:49;3.80;1.00
1429;DHT22;708;51.442;7.016;2024-03-08T01:43:20;3.80;54.10
1429;DHT22;708;51.442;7.016;2024-03-08T01:45:48;3.80;1.00
1429;DHT22;708;51.442;7.016;2024-03-08T01:48:16;3.80;1.00
1429;DHT22;708;51.442;7.016;2024-03-08T01:50:45;3.80;16.90
1429;DHT22;708;51.442;7.016;2024-03-08T01:53:13;3.80;95.70
1429;DHT22;708;51.442;7.016;2024-03-08T01:55:41;3.70;99.90
1429;DHT22;708;51.442;7.016;2024-03-08T01:58:09;3.70;99.90
1429;DHT22;708;51.442;7.016;2024-03-08T02:00:38;3.70;99.90
1429;DHT22;708;51.442;7.016;2024-03-08T02:03:07;3.70;99.90
1429;DHT22;708;51.442;7.016;2024-03-08T02:05:34;3.70;99.90
1429;DHT22;708;51.442;7.016;2024-03-08T02:08:02;3.60;99.90
1429;DHT22;708;51.442;7.016;2024-03-08T02:10:29;3.60;1.00
1429;DHT22;708;51.442;7.016;2024-03-08T02:12:56;3.60;1.00
1429;DHT22;708;51.442;7.016;2024-03-08T02:15:23;3.60;1.00
1429;DHT22;708;51.442;7.016;2024-03-08T02:17:51;3.60;1.00
1429;DHT22;708;51.442;7.016;2024-03-08T02:20:19;3.60;1.00
1429;DHT22;708;51.442;7.016;2024-03-08T02:22:47;3.60;1.00
1429;DHT22;708;51.442;7.016;2024-03-08T02:25:16;3.60;1.00
1429;DHT22;708;51.442;7.016;2024-03-08T02:27:44;3.60;1.00
1429;DHT22;708;51.442;7.016;2024-03-08T02:30:11;3.50;1.00
1429;DHT22;708;51.442;7.016;2024-03-08T02:32:39;3.50;30.50
1429;DHT22;708;51.442;7.016;2024-03-08T02:35:05;3.50;99.60
1429;DHT22;708;51.442;7.016;2024-03-08T02:37:32;3.50;89.60
1429;DHT22;708;51.442;7.016;2024-03-08T02:40:00;3.50;99.90
1429;DHT22;708;51.442;7.016;2024-03-08T02:42:27;3.50;99.90
1429;DHT22;708;51.442;7.016;2024-03-08T02:44:56;3.50;99.90
1429;DHT22;708;51.442;7.016;2024-03-08T02:47:23;3.50;99.90
1429;DHT22;708;51.442;7.016;2024-03-08T02:49:51;3.50;99.90
1429;DHT22;708;51.442;7.016;2024-03-08T02:52:18;3.40;99.90
1429;DHT22;708;51.442;7.016;2024-03-08T02:54:47;3.40;99.90
1429;DHT22;708;51.442;7.016;2024-03-08T02:57:15;3.50;99.90
1429;DHT22;708;51.442;7.016;2024-03-08T02:59:42;3.40;99.90
1429;DHT22;708;51.442;7.016;2024-03-08T03:02:09;3.40;99.90
1429;DHT22;708;51.442;7.016;2024-03-08T03:04:36;3.40;99.90
1429;DHT22;708;51.442;7.016;2024-03-08T03:07:02;3.40;99.90
1429;DHT22;708;51.442;7.016;2024-03-08T03:09:30;3.40;99.90
1429;DHT22;708;51.442;7.016;2024-03-08T03:11:58;3.40;99.90
1429;DHT22;708;51.442;7.016;2024-03-08T03:14:26;3.40;99.90
1429;DHT22;708;51.442;7.016;2024-03-08T03:16:53;3.30;99.90
1429;DHT22;708;51.442;7.016;2024-03-08T03:19:20;3.30;1.00
1429;DHT22;708;51.442;7.016;2024-03-08T03:21:47;3.20;1.00
1429;DHT22;708;51.442;7.016;2024-03-08T03:24:13;3.30;1.00
1429;DHT22;708;51.442;7.016;2024-03-08T03:26:41;3.30;1.00
1429;DHT22;708;51.442;7.016;2024-03-08T03:29:09;3.20;1.00
1429;DHT22;708;51.442;7.016;2024-03-08T03:31:37;3.20;1.00
1429;DHT22;708;51.442;7.016;2024-03-08T03:34:05;3.20;1.00
1429;DHT22;708;51.442;7.016;2024-03-08T03:36:34;3.20;1.00
1429;DHT22;708;51.442;7.016;2024-03-08T03:39:03;3.20;1.00
1429;DHT22;708;51.442;7.016;2024-03-08T03:41:36;3.20;1.00
1429;DHT22;708;51.442;7.016;2024-03-08T03:44:04;3.10;1.00
1429;DHT22;708;51.442;7.016;2024-03-08T03:46:31;3.20;1.00
1429;DHT22;708;51.442;7.016;2024-03-08T03:48:59;3.10;1.00
1429;DHT22;708;51.442;7.016;2024-03-08T03:51:25;3.10;1.00
1429;DHT22;708;51.442;7.016;2024-03-08T03:53:52;3.10;1.00
1429;DHT22;708;51.442;7.016;2024-03-08T03:56:19;3.10;1.00
1429;DHT22;708;51.442;7.016;2024-03-08T03:58:51;3.10;1.00
1429;DHT22;708;51.442;7.016;2024-03-08T04:01:17;3.10;1.00
1429;DHT22;708;51.442;7.016;2024-03-08T04:03:45;3.10;1.00
1429;DHT22;708;51.442;7.016;2024-03-08T04:06:13;3.10;1.00
1429;DHT22;708;51.442;7.016;2024-03-08T04:08:39;3.10;1.00
1429;DHT22;708;51.442;7.016;2024-03-08T04:11:06;3.20;1.00
1429;DHT22;708;51.442;7.016;2024-03-08T04:13:33;3.10;1.00
1429;DHT22;708;51.442;7.016;2024-03-08T04:16:01;3.10;1.00
1429;DHT22;708;51.442;7.016;2024-03-08T04:18:28;3.10;1.00
1429;DHT22;708;51.442;7.016;2024-03-08T04:20:55;3.10;1.00
1429;DHT22;708;51.442;7.016;2024-03-08T04:23:23;3.00;1.00
1429;DHT22;708;51.442;7.016;2024-03-08T04:25:50;3.00;15.70
1429;DHT22;708;51.442;7.016;2024-03-08T04:28:16;3.00;36.50
1429;DHT22;708;51.442;7.016;2024-03-08T04:30:43;3.00;40.70
1429;DHT22;708;51.442;7.016;2024-03-08T04:33:11;3.00;39.90
1429;DHT22;708;51.442;7.016;2024-03-08T04:35:40;3.00;56.40
1429;DHT22;708;51.442;7.016;2024-03-08T04:38:07;3.00;73.00
1429;DHT22;708;51.442;7.016;2024-03-08T04:40:35;2.90;99.90
1429;DHT22;708;51.442;7.016;2024-03-08T04:43:02;2.90;98.20
1429;DHT22;708;51.442;7.016;2024-03-08T04:45:29;2.90;99.90
1429;DHT22;708;51.442;7.016;2024-03-08T04:47:56;2.90;99.90
1429;DHT22;708;51.442;7.016;2024-03-08T04:50:23;2.80;99.90
1429;DHT22;708;51.442;7.016;2024-03-08T04:52:50;2.80;99.90
1429;DHT22;708;51.442;7.016;2024-03-08T04:55:17;2.80;99.90
1429;DHT22;708;51.442;7.016;2024-03-08T04:57:47;2.80;99.90
1429;DHT22;708;51.442;7.016;2024-03-08T05:00:15;2.80;99.90
1429;DHT22;708;51.442;7.016;2024-03-08T05:02:42;2.70;99.90
1429;DHT22;708;51.442;7.016;2024-03-08T05:05:09;2.70;99.90
1429;DHT22;708;51.442;7.016;2024-03-08T05:07:38;2.70;99.90
1429;DHT22;708;51.442;7.016;2024-03-08T05:10:05;2.70;99.90
1429;DHT22;708;51.442;7.016;2024-03-08T05:12:33;2.70;99.90
1429;DHT22;708;51.442;7.016;2024-03-08T05:15:08;2.70;99.90
1429;DHT22;708;51.442;7.016;2024-03-08T05:17:35;2.70;99.90
1429;DHT22;708;51.442;7.016;2024-03-08T05:20:08;2.60;99.90
1429;DHT22;708;51.442;7.016;2024-03-08T05:22:37;2.60;99.90
1429;DHT22;708;51.442;7.016;2024-03-08T05:25:06;2.60;99.90
1429;DHT22;708;51.442;7.016;2024-03-08T05:27:33;2.60;99.90
1429;DHT22;708;51.442;7.016;2024-03-08T05:30:01;2.60;99.90
1429;DHT22;708;51.442;7.016;2024-03-08T05:32:30;2.60;99.90
1429;DHT22;708;51.442;7.016;2024-03-08T05:34:57;2.60;99.90
1429;DHT22;708;51.442;7.016;2024-03-08T05:37:24;2.60;99.90
1429;DHT22;708;51.442;7.016;2024-03-08T05:39:51;2.60;99.90
1429;DHT22;708;51.442;7.016;2024-03-08T05:42:19;2.50;99.90
1429;DHT22;708;51.442;7.016;2024-03-08T05:44:45;2.50;99.90
1429;DHT22;708;51.442;7.016;2024-03-08T05:47:12;2.50;99.90
1429;DHT22;708;51.442;7.016;2024-03-08T05:49:41;2.40;99.90
1429;DHT22;708;51.442;7.016;2024-03-08T05:52:09;2.40;99.90
1429;DHT22;708;51.442;7.016;2024-03-08T05:54:36;2.40;1.00
1429;DHT22;708;51.442;7.016;2024-03-08T05:57:03;2.40;1.00
1429;DHT22;708;51.442;7.016;2024-03-08T05:59:31;2.40;1.00
1429;DHT22;708;51.442;7.016;2024-03-08T06:01:58;2.40;1.00
1429;DHT22;708;51.442;7.016;2024-03-08T06:04:25;2.40;1.00
1429;DHT22;708;51.442;7.016;2024-03-08T06:06:54;2.40;1.00
1429;DHT22;708;51.442;7.016;2024-03-08T06:09:21;2.50;1.00
1429;DHT22;708;51.442;7.016;2024-03-08T06:11:50;2.50;1.00
1429;DHT22;708;51.442;7.016;2024-03-08T06:14:16;2.50;1.00
1429;DHT22;708;51.442;7.016;2024-03-08T06:16:44;2.50;1.00
1429;DHT22;708;51.442;7.016;2024-03-08T06:19:11;2.50;1.00
1429;DHT22;708;51.442;7.016;2024-03-08T06:21:38;2.50;1.00
1429;DHT22;708;51.442;7.016;2024-03-08T06:24:06;2.50;1.00
1429;DHT22;708;51.442;7.016;2024-03-08T06:26:33;2.60;1.00
1429;DHT22;708;51.442;7.016;2024-03-08T06:29:00;2.60;99.90
1429;DHT22;708;51.442;7.016;2024-03-08T06:31:27;2.70;99.90
1429;DHT22;708;51.442;7.016;2024-03-08T06:33:53;2.70;99.90
1429;DHT22;708;51.442;7.016;2024-03-08T06:36:20;2.70;99.90
1429;DHT22;708;51.442;7.016;2024-03-08T06:38:48;2.70;99.90
1429;DHT22;708;51.442;7.016;2024-03-08T06:41:16;2.80;99.90
1429;DHT22;708;51.442;7.016;2024-03-08T06:43:43;2.90;99.90
1429;DHT22;708;51.442;7.016;2024-03-08T06:46:10;3.00;99.90
1429;DHT22;708;51.442;7.016;2024-03-08T06:48:38;3.10;99.90
1429;DHT22;708;51.442;7.016;2024-03-08T06:51:05;3.20;99.90
1429;DHT22;708;51.442;7.016;2024-03-08T06:53:32;3.30;99.90
1429;DHT22;708;51.442;7.016;2024-03-08T06:56:00;3.50;99.90
1429;DHT22;708;51.442;7.016;2024-03-08T06:58:28;3.80;99.90
1429;DHT22;708;51.442;7.016;2024-03-08T07:00:55;4.20;99.90
1429;DHT22;708;51.442;7.016;2024-03-08T07:03:25;4.50;99.90
1429;DHT22;708;51.442;7.016;2024-03-08T07:05:55;4.80;99.90
1429;DHT22;708;51.442;7.016;2024-03-08T07:08:22;5.20;99.90
1429;DHT22;708;51.442;7.016;2024-03-08T07:10:48;5.70;99.90
1429;DHT22;708;51.442;7.016;2024-03-08T07:13:15;6.30;99.90
1429;DHT22;708;51.442;7.016;2024-03-08T07:15:44;6.90;99.90
1429;DHT22;708;51.442;7.016;2024-03-08T07:18:11;7.60;99.90
1429;DHT22;708;51.442;7.016;2024-03-08T07:20:40;8.40;99.90
1429;DHT22;708;51.442;7.016;2024-03-08T07:23:07;9.20;99.90
1429;DHT22;708;51.442;7.016;2024-03-08T07:25:36;9.70;99.90
1429;DHT22;708;51.442;7.016;2024-03-08T07:28:04;10.40;99.90
1429;DHT22;708;51.442;7.016;2024-03-08T07:30:32;11.00;99.90
1429;DHT22;708;51.442;7.016;2024-03-08T07:33:18;11.80;99.90
1429;DHT22;708;51.442;7.016;2024-03-08T07:35:45;12.60;99.40
1429;DHT22;708;51.442;7.016;2024-03-08T07:38:12;13.20;97.90
1429;DHT22;708;51.442;7.016;2024-03-08T07:40:41;13.80;96.00
1429;DHT22;708;51.442;7.016;2024-03-08T07:43:10;14.00;94.60
1429;DHT22;708;51.442;7.016;2024-03-08T07:45:37;14.30;93.50
1429;DHT22;708;51.442;7.016;2024-03-08T07:48:04;14.30;92.70
1429;DHT22;708;51.442;7.016;2024-03-08T07:50:36;14.20;92.40
1429;DHT22;708;51.442;7.016;2024-03-08T07:53:03;14.40;91.90
1429;DHT22;708;51.442;7.016;2024-03-08T07:55:31;14.30;91.60
1429;DHT22;708;51.442;7.016;2024-03-08T07:57:58;14.60;91.40
1429;DHT22;708;51.442;7.016;2024-03-08T08:00:25;14.90;90.70
1429;DHT22;708;51.442;7.016;2024-03-08T08:02:53;14.90;90.30
1429;DHT22;708;51.442;7.016;2024-03-08T08:05:20;14.90;90.10
1429;DHT22;708;51.442;7.016;2024-03-08T08:07:48;15.00;89.70
1429;DHT22;708;51.442;7.016;2024-03-08T08:10:15;15.20;89.00
1429;DHT22;708;51.442;7.016;2024-03-08T08:12:44;15.20;88.70
1429;DHT22;708;51.442;7.016;2024-03-08T08:15:11;15.30;87.30
1429;DHT22;708;51.442;7.016;2024-03-08T08:17:38;15.20;87.40
1429;DHT22;708;51.442;7.016;2024-03-08T08:20:05;15.30;87.30
1429;DHT22;708;51.442;7.016;2024-03-08T08:22:32;15.20;86.50
1429;DHT22;708;51.442;7.016;2024-03-08T08:25:00;15.20;86.90
1429;DHT22;708;51.442;7.016;2024-03-08T08:27:28;15.30;86.70
1429;DHT22;708;51.442;7.016;2024-03-08T08:29:55;15.30;86.30
1429;DHT22;708;51.442;7.016;2024-03-08T08:32:22;15.80;86.20
1429;DHT22;708;51.442;7.016;2024-03-08T08:34:49;16.60;84.50
1429;DHT22;708;51.442;7.016;2024-03-08T08:37:15;16.40;82.50
1429;DHT22;708;51.442;7.016;2024-03-08T08:39:42;16.60;81.80
1429;DHT22;708;51.442;7.016;2024-03-08T08:42:12;16.40;81.00
1429;DHT22;708;51.442;7.016;2024-03-08T08:44:38;16.30;81.40
1429;DHT22;708;51.442;7.016;2024-03-08T08:47:06;16.90;81.50
1429;DHT22;708;51.442;7.016;2024-03-08T08:49:33;16.60;79.20
1429;DHT22;708;51.442;7.016;2024-03-08T08:52:00;16.20;79.10
1429;DHT22;708;51.442;7.016;2024-03-08T08:54:28;16.00;79.50
1429;DHT22;708;51.442;7.016;2024-03-08T08:56:55;15.90;80.40
1429;DHT22;708;51.442;7.016;2024-03-08T08:59:23;15.80;80.80
1429;DHT22;708;51.442;7.016;2024-03-08T09:01:50;16.00;80.80
1429;DHT22;708;51.442;7.016;2024-03-08T09:04:19;16.50;79.70
1429;DHT22;708;51.442;7.016;2024-03-08T09:06:47;16.90;78.50
1429;DHT22;708;51.442;7.016;2024-03-08T09:09:13;16.50;78.40
1429;DHT22;708;51.442;7.016;2024-03-08T09:11:42;16.50;79.00
1429;DHT22;708;51.442;7.016;2024-03-08T09:14:09;16.40;78.00
1429;DHT22;708;51.442;7.016;2024-03-08T09:23:00;16.30;77.10
1429;DHT22;708;51.442;7.016;2024-03-08T09:25:26;16.30;77.90
1429;DHT22;708;51.442;7.016;2024-03-08T09:27:53;16.20;77.60
1429;DHT22;708;51.442;7.016;2024-03-08T09:30:20;15.70;77.80
1429;DHT22;708;51.442;7.016;2024-03-08T09:32:47;14.90;79.20
1429;DHT22;708;51.442;7.016;2024-03-08T09:35:18;15.00;80.10
1429;DHT22;708;51.442;7.016;2024-03-08T09:37:45;15.20;79.60
1429;DHT22;708;51.442;7.016;2024-03-08T09:40:13;15.00;79.50
1429;DHT22;708;51.442;7.016;2024-03-08T09:42:41;14.60;79.70
1429;DHT22;708;51.442;7.016;2024-03-08T09:45:11;14.60;81.00
1429;DHT22;708;51.442;7.016;2024-03-08T09:47:44;14.30;80.70
1429;DHT22;708;51.442;7.016;2024-03-08T09:50:12;14.10;81.30
1429;DHT22;708;51.442;7.016;2024-03-08T09:52:49;14.10;82.20
1429;DHT22;708;51.442;7.016;2024-03-08T09:55:16;14.40;81.70
1429;DHT22;708;51.442;7.016;2024-03-08T09:57:48;14.00;81.40
1429;DHT22;708;51.442;7.016;2024-03-08T10:00:32;13.40;82.70
1429;DHT22;708;51.442;7.016;2024-03-08T10:03:02;13.20;85.60
1429;DHT22;708;51.442;7.016;2024-03-08T10:05:31;13.00;84.80
1429;DHT22;708;51.442;7.016;2024-03-08T10:08:00;12.40;86.50
1429;DHT22;708;51.442;7.016;2024-03-08T10:10:27;12.30;87.50
1429;DHT22;708;51.442;7.016;2024-03-08T10:12:53;12.00;88.60
1429;DHT22;708;51.442;7.016;2024-03-08T10:15:21;11.80;89.60
1429;DHT22;708;51.442;7.016;2024-03-08T10:17:48;11.70;90.20
1429;DHT22;708;51.442;7.016;2024-03-08T10:20:15;11.30;90.40
1429;DHT22;708;51.442;7.016;2024-03-08T10:22:42;11.20;90.70
1429;DHT22;708;51.442;7.016;2024-03-08T10:25:13;10.70;91.30
1429;DHT22;708;51.442;7.016;2024-03-08T10:27:40;10.30;92.00
1429;DHT22;708;51.442;7.016;2024-03-08T10:30:10;10.10;93.20
1429;DHT22;708;51.442;7.016;2024-03-08T10:32:39;9.90;94.00
1429;DHT22;708;51.442;7.016;2024-03-08T10:35:07;9.90;94.70
1429;DHT22;708;51.442;7.016;2024-03-08T10:37:36;9.70;95.60
1429;DHT22;708;51.442;7.016;2024-03-08T10:40:13;9.70;96.50
1429;DHT22;708;51.442;7.016;2024-03-08T10:42:51;9.70;96.40
1429;DHT22;708;51.442;7.016;2024-03-08T10:45:26;9.70;97.60
1429;DHT22;708;51.442;7.016;2024-03-08T10:48:14;9.70;97.40
1429;DHT22;708;51.442;7.016;2024-03-08T10:50:44;9.70;98.30
1429;DHT22;708;51.442;7.016;2024-03-08T10:53:13;9.70;98.90
1429;DHT22;708;51.442;7.016;2024-03-08T10:55:42;9.60;99.30
1429;DHT22;708;51.442;7.016;2024-03-08T10:58:10;9.60;99.60
1429;DHT22;708;51.442;7.016;2024-03-08T11:00:37;9.60;99.90
1429;DHT22;708;51.442;7.016;2024-03-08T11:03:04;9.70;99.90
1429;DHT22;708;51.442;7.016;2024-03-08T11:05:35;9.90;99.90
1429;DHT22;708;51.442;7.016;2024-03-08T11:08:14;10.00;99.80
1429;DHT22;708;51.442;7.016;2024-03-08T11:10:49;10.10;99.70
1429;DHT22;708;51.442;7.016;2024-03-08T11:13:33;10.20;99.60
1429;DHT22;708;51.442;7.016;2024-03-08T11:16:01;9.80;99.90
1429;DHT22;708;51.442;7.016;2024-03-08T11:18:32;9.60;99.90
1429;DHT22;708;51.442;7.016;2024-03-08T11:21:02;9.60;99.90
1429;DHT22;708;51.442;7.016;2024-03-08T11:23:31;9.60;99.90
1429;DHT22;708;51.442;7.016;2024-03-08T11:26:00;9.70;99.90
1429;DHT22;708;51.442;7.016;2024-03-08T11:28:27;9.70;99.90
1429;DHT22;708;51.442;7.016;2024-03-08T11:31:22;9.80;99.90
1429;DHT22;708;51.442;7.016;2024-03-08T11:33:49;9.80;99.90
1429;DHT22;708;51.442;7.016;2024-03-08T11:36:21;9.70;99.90
1429;DHT22;708;51.442;7.016;2024-03-08T11:38:48;9.80;99.90
1429;DHT22;708;51.442;7.016;2024-03-08T11:41:22;9.70;99.90
1429;DHT22;708;51.442;7.016;2024-03-08T11:44:03;9.80;99.90
1429;DHT22;708;51.442;7.016;2024-03-08T11:46:32;9.90;99.90
1429;DHT22;708;51.442;7.016;2024-03-08T11:49:03;10.10;99.90
1429;DHT22;708;51.442;7.016;2024-03-08T11:51:31;10.00;99.90
1429;DHT22;708;51.442;7.016;2024-03-08T11:54:04;10.00;99.90
1429;DHT22;708;51.442;7.016;2024-03-08T11:56:33;9.90;99.90
1429;DHT22;708;51.442;7.016;2024-03-08T11:59:01;9.90;99.90
1429;DHT22;708;51.442;7.016;2024-03-08T12:01:28;9.80;99.90
1429;DHT22;708;51.442;7.016;2024-03-08T12:03:57;9.90;99.90
1429;DHT22;708;51.442;7.016;2024-03-08T12:06:25;10.10;99.90
1429;DHT22;708;51.442;7.016;2024-03-08T12:08:54;10.20;99.90
1429;DHT22;708;51.442;7.016;2024-03-08T12:11:21;10.40;99.90
1429;DHT22;708;51.442;7.016;2024-03-08T12:13:51;10.60;99.90
1429;DHT22;708;51.442;7.016;2024-03-08T12:16:18;10.80;99.90
1429;DHT22;708;51.442;7.016;2024-03-08T12:18:47;10.80;99.90
1429;DHT22;708;51.442;7.016;2024-03-08T12:21:15;11.00;99.90
1429;DHT22;708;51.442;7.016;2024-03-08T12:23:46;11.10;99.90
1429;DHT22;708;51.442;7.016;2024-03-08T12:26:17;11.10;99.60
1429;DHT22;708;51.442;7.016;2024-03-08T12:28:45;11.20;99.10
1429;DHT22;708;51.442;7.016;2024-03-08T12:31:15;11.20;98.50
1429;DHT22;708;51.442;7.016;2024-03-08T12:33:49;11.20;98.30
1429;DHT22;708;51.442;7.016;2024-03-08T12:36:16;11.30;98.20
1429;DHT22;708;51.442;7.016;2024-03-08T12:38:44;11.40;97.90
1429;DHT22;708;51.442;7.016;2024-03-08T12:41:13;11.40;97.70
1429;DHT22;708;51.442;7.016;2024-03-08T12:43:40;11.30;97.20
1429;DHT22;708;51.442;7.016;2024-03-08T12:46:07;11.30;97.40
1429;DHT22;708;51.442;7.016;2024-03-08T12:48:36;11.40;97.40
1429;DHT22;708;51.442;7.016;2024-03-08T12:51:06;11.40;97.10
1429;DHT22;708;51.442;7.016;2024-03-08T12:53:32;11.50;96.50
1429;DHT22;708;51.442;7.016;2024-03-08T12:55:59;11.50;96.30
1429;DHT22;708;51.442;7.016;2024-03-08T12:58:26;11.70;96.20
1429;DHT22;708;51.442;7.016;2024-03-08T13:00:53;11.80;95.40
1429;DHT22;708;51.442;7.016;2024-03-08T13:03:20;11.90;94.70
1429;DHT22;708;51.442;7.016;2024-03-08T13:05:49;11.90;93.70
1429;DHT22;708;51.442;7.016;2024-03-08T13:08:16;11.90;93.60
1429;DHT22;708;51.442;7.016;2024-03-08T13:10:43;12.10;93.10
1429;DHT22;708;51.442;7.016;2024-03-08T13:13:10;12.20;92.90
1429;DHT22;708;51.442;7.016;2024-03-08T13:15:37;12.20;92.70
1429;DHT22;708;51.442;7.016;2024-03-08T13:18:04;12.30;92.30
1429;DHT22;708;51.442;7.016;2024-03-08T13:20:34;12.30;91.80
1429;DHT22;708;51.442;7.016;2024-03-08T13:23:09;12.30;91.90
1429;DHT22;708;51.442;7.016;2024-03-08T13:25:36;12.30;91.90
1429;DHT22;708;51.442;7.016;2024-03-08T13:28:04;12.40;91.80
1429;DHT22;708;51.442;7.016;2024-03-08T13:30:32;12.30;91.10
1429;DHT22;708;51.442;7.016;2024-03-08T13:33:01;12.30;91.10
1429;DHT22;708;51.442;7.016;2024-03-08T13:35:30;12.30;90.80
1429;DHT22;708;51.442;7.016;2024-03-08T13:37:57;12.20;90.70
1429;DHT22;708;51.442;7.016;2024-03-08T13:40:26;12.30;90.90
1429;DHT22;708;51.442;7.016;2024-03-08T13:42:52;12.30;90.70
1429;DHT22;708;51.442;7.016;2024-03-08T13:45:19;12.40;90.40
1429;DHT22;708;51.442;7.016;2024-03-08T13:47:49;12.40;90.30
1429;DHT22;708;51.442;7.016;2024-03-08T13:50:17;12.50;90.20
1429;DHT22;708;51.442;7.016;2024-03-08T13:52:46;12.40;89.30
1429;DHT22;708;51.442;7.016;2024-03-08T13:55:15;12.40;89.90
1429;DHT22;708;51.442;7.016;2024-03-08T13:57:43;12.40;89.50
1429;DHT22;708;51.442;7.016;2024-03-08T14:00:11;12.50;89.20
1429;DHT22;708;51.442;7.016;2024-03-08T14:02:38;12.40;89.50
1429;DHT22;708;51.442;7.016;2024-03-08T14:05:06;12.40;89.50
1429;DHT22;708;51.442;7.016;2024-03-08T14:07:34;12.50;89.80
1429;DHT22;708;51.442;7.016;2024-03-08T14:10:01;12.50;89.40
1429;DHT22;708;51.442;7.016;2024-03-08T14:12:28;12.50;88.90
1429;DHT22;708;51.442;7.016;2024-03-08T14:14:56;12.50;88.60
1429;DHT22;708;51.442;7.016;2024-03-08T14:17:25;12.60;89.20
1429;DHT22;708;51.442;7.016;2024-03-08T14:19:52;12.70;89.10
1429;DHT22;708;51.442;7.016;2024-03-08T14:22:20;12.70;88.60
1429;DHT22;708;51.442;7.016;2024-03-08T14:24:52;12.70;88.40
1429;DHT22;708;51.442;7.016;2024-03-08T14:27:21;12.70;88.60
1429;DHT22;708;51.442;7.016;2024-03-08T14:29:48;12.60;88.40
1429;DHT22;708;51.442;7.016;2024-03-08T14:32:16;12.60;89.30
1429;DHT22;708;51.442;7.016;2024-03-08T14:34:45;12.60;89.10
1429;DHT22;708;51.442;7.016;2024-03-08T14:37:12;12.60;89.30
1429;DHT22;708;51.442;7.016;2024-03-08T14:39:39;12.60;88.70
1429;DHT22;708;51.442;7.016;2024-03-08T14:42:06;12.60;88.90
1429;DHT22;708;51.442;7.016;2024-03-08T14:44:34;12.50;89.30
1429;DHT22;708;51.442;7.016;2024-03-08T14:47:01;12.40;88.70
1429;DHT22;708;51.442;7.016;2024-03-08T14:49:32;12.40;88.60
1429;DHT22;708;51.442;7.016;2024-03-08T14:52:04;12.30;88.40
1429;DHT22;708;51.442;7.016;2024-03-08T14:54:51;12.30;88.50
1429;DHT22;708;51.442;7.016;2024-03-08T14:57:17;12.30;88.10
1429;DHT22;708;51.442;7.016;2024-03-08T14:59:44;12.20;87.90
1429;DHT22;708;51.442;7.016;2024-03-08T15:02:11;12.20;88.00
1429;DHT22;708;51.442;7.016;2024-03-08T15:04:39;12.20;88.50
1429;DHT22;708;51.442;7.016;2024-03-08T15:07:07;12.10;89.10
1429;DHT22;708;51.442;7.016;2024-03-08T15:09:35;12.10;88.90
1429;DHT22;708;51.442;7.016;2024-03-08T15:12:06;12.10;88.90
1429;DHT22;708;51.442;7.016;2024-03-08T15:14:32;12.10;89.10
1429;DHT22;708;51.442;7.016;2024-03-08T15:16:59;12.10;89.60
1429;DHT22;708;51.442;7.016;2024-03-08T15:19:35;12.20;90.00
1429;DHT22;708;51.442;7.016;2024-03-08T15:22:04;12.20;89.50
1429;DHT22;708;51.442;7.016;2024-03-08T15:24:31;12.20;89.80
1429;DHT22;708;51.442;7.016;2024-03-08T15:26:58;12.20;89.80
1429;DHT22;708;51.442;7.016;2024-03-08T15:29:27;12.10;89.60
1429;DHT22;708;51.442;7.016;2024-03-08T15:31:54;12.10;90.60
1429;DHT22;708;51.442;7.016;2024-03-08T15:34:21;12.00;90.20
1429;DHT22;708;51.442;7.016;2024-03-08T15:36:49;12.00;90.50
1429;DHT22;708;51.442;7.016;2024-03-08T15:39:18;12.00;90.20
1429;DHT22;708;51.442;7.016;2024-03-08T15:41:46;12.00;90.10
1429;DHT22;708;51.442;7.016;2024-03-08T15:44:13;12.00;90.00
1429;DHT22;708;51.442;7.016;2024-03-08T15:46:41;12.10;90.20
1429;DHT22;708;51.442;7.016;2024-03-08T15:49:08;12.00;90.20
1429;DHT22;708;51.442;7.016;2024-03-08T15:51:36;11.90;90.30
1429;DHT22;708;51.442;7.016;2024-03-08T15:54:03;11.90;90.40
1429;DHT22;708;51.442;7.016;2024-03-08T15:56:31;11.80;90.60
1429;DHT22;708;51.442;7.016;2024-03-08T15:58:58;11.80;90.70
1429;DHT22;708;51.442;7.016;2024-03-08T16:01:29;11.70;90.80
1429;DHT22;708;51.442;7.016;2024-03-08T16:03:56;11.70;91.10
1429;DHT22;708;51.442;7.016;2024-03-08T16:06:24;11.60;91.00
1429;DHT22;708;51.442;7.016;2024-03-08T16:08:51;11.60;91.10
1429;DHT22;708;51.442;7.016;2024-03-08T16:11:18;11.60;91.20
1429;DHT22;708;51.442;7.016;2024-03-08T16:13:48;11.50;91.30
1429;DHT22;708;51.442;7.016;2024-03-08T16:16:14;11.50;91.50
1429;DHT22;708;51.442;7.016;2024-03-08T16:18:42;11.50;91.80
1429;DHT22;708;51.442;7.016;2024-03-08T16:21:09;11.40;91.70
1429;DHT22;708;51.442;7.016;2024-03-08T16:23:35;11.30;91.70
1429;DHT22;708;51.442;7.016;2024-03-08T16:26:03;11.30;91.60
1429;DHT22;708;51.442;7.016;2024-03-08T16:28:31;11.30;91.80
1429;DHT22;708;51.442;7.016;2024-03-08T16:31:05;11.30;92.10
1429;DHT22;708;51.442;7.016;2024-03-08T16:33:33;11.20;92.30
1429;DHT22;708;51.442;7.016;2024-03-08T16:36:01;11.20;92.60
1429;DHT22;708;51.442;7.016;2024-03-08T16:38:28;11.20;92.80
1429;DHT22;708;51.442;7.016;2024-03-08T16:40:55;11.10;92.70